Time;durP1;ratioP1;P1;durP2;ratioP2;P2;SDS_P1;SDS_P2;PMS_P1;PMS_P2;Temp;Humidity;BMP_temperature;BMP_pressure;BME280_temperature;BME280_humidity;BME280_pressure;Samples;Min_cycle;Max_cycle;Signal;HPM_P1;HPM_P2
2021/03/13 00:00:18;;;;;;;;;;;;;;;5.47;95.89;99583.34;5025205;28;20000;-84
2021/03/13 00:02:45;;;;;;;;;;;;;;;5.47;96.13;99574.50;5025787;28;19920;-82
2021/03/13 00:05:12;;;;;;;;;;;;;;;5.46;95.97;99576.34;5027135;28;19918;-82
2021/03/13 00:07:37;;;;;;;;;;;;;;;5.47;96.35;99564.72;5046130;28;20375;-86
2021/03/13 00:10:03;;;;;;;;;;;;;;;5.46;96.36;99571.03;5012035;28;19932;-85
2021/03/13 00:12:28;;;;;;;;;;;;;;;5.46;96.52;99563.03;5011886;28;19921;-80
2021/03/13 00:14:53;;;;;;;;;;;;;;;5.46;96.57;99556.91;5025319;28;20004;-83
2021/03/13 00:17:19;;;;;;;;;;;;;;;5.47;96.54;99551.44;5030043;28;19944;-83
2021/03/13 00:19:44;;;;;;;;;;;;;;;5.45;96.49;99539.28;5031003;28;19924;-80
2021/03/13 00:22:09;;;;;;;;;;;;;;;5.44;96.40;99543.78;5027570;28;19924;-78
2021/03/13 00:24:35;;;;;;;;;;;;;;;5.45;96.37;99548.09;5011491;28;20335;-84
2021/03/13 00:27:00;;;;;;;;;;;;;;;5.45;96.30;99545.44;5025049;28;19956;-82
2021/03/13 00:29:26;;;;;;;;;;;;;;;5.45;96.21;99525.97;5011077;28;19921;-83
2021/03/13 00:31:53;;;;;;;;;;;;;;;5.43;96.21;99528.78;5031226;28;20279;-81
2021/03/13 00:34:20;;;;;;;;;;;;;;;5.42;96.56;99532.44;5024886;28;19918;-85
2021/03/13 00:36:45;;;;;;;;;;;;;;;5.40;96.46;99529.09;5007107;28;20431;-85
2021/03/13 00:39:10;;;;;;;;;;;;;;;5.41;96.44;99525.47;5010437;28;20017;-81
2021/03/13 00:41:36;;;;;;;;;;;;;;;5.43;96.17;99523.47;5018611;28;19917;-80
2021/03/13 00:44:01;;;;;;;;;;;;;;;5.45;96.07;99516.16;5012069;28;20379;-86
2021/03/13 00:46:26;;;;;;;;;;;;;;;5.48;95.81;99515.00;5009730;28;19930;-84
2021/03/13 00:48:52;;;;;;;;;;;;;;;5.49;95.92;99504.19;5010631;28;19917;-83
2021/03/13 00:51:17;;;;;;;;;;;;;;;5.48;95.88;99501.69;5004844;28;19921;-81
2021/03/13 00:53:42;;;;;;;;;;;;;;;5.49;96.09;99503.34;5007294;28;20025;-83
2021/03/13 00:56:07;;;;;;;;;;;;;;;5.50;96.15;99494.41;5026200;28;19929;-83
2021/03/13 00:58:33;;;;;;;;;;;;;;;5.52;95.88;99490.56;5009728;28;19967;-86
2021/03/13 01:00:58;;;;;;;;;;;;;;;5.54;95.99;99480.59;5027382;28;20410;-83
2021/03/13 01:03:23;;;;;;;;;;;;;;;5.55;95.78;99482.28;5030898;28;19966;-83
2021/03/13 01:05:48;;;;;;;;;;;;;;;5.58;95.43;99483.75;5020964;28;19945;-86
2021/03/13 01:08:14;;;;;;;;;;;;;;;5.60;95.44;99485.25;5027691;28;19964;-82
2021/03/13 01:10:39;;;;;;;;;;;;;;;5.59;95.66;99477.44;5028423;28;19921;-84
2021/03/13 01:13:05;;;;;;;;;;;;;;;5.60;95.38;99477.25;5030718;28;19921;-83
2021/03/13 01:15:31;;;;;;;;;;;;;;;5.61;95.22;99455.00;5030701;28;19924;-85
2021/03/13 01:17:57;;;;;;;;;;;;;;;5.62;95.01;99461.97;5029700;28;19920;-82
2021/03/13 01:20:22;;;;;;;;;;;;;;;5.61;95.19;99457.66;5011938;28;20291;-86
2021/03/13 01:22:48;;;;;;;;;;;;;;;5.59;95.28;99456.97;5023499;28;19917;-81
2021/03/13 01:25:14;;;;;;;;;;;;;;;5.60;95.34;99449.81;5027756;28;19921;-85
2021/03/13 01:27:39;;;;;;;;;;;;;;;5.59;95.46;99442.84;5016819;28;19936;-88
2021/03/13 01:30:06;;;;;;;;;;;;;;;5.57;95.31;99427.03;5007132;28;19925;-81
2021/03/13 01:32:31;;;;;;;;;;;;;;;5.55;95.43;99414.88;5011069;28;20454;-82
2021/03/13 01:34:56;;;;;;;;;;;;;;;5.54;95.53;99419.38;5028558;28;19921;-84
2021/03/13 01:37:22;;;;;;;;;;;;;;;5.55;95.67;99406.91;5010486;28;19918;-79
2021/03/13 01:39:48;;;;;;;;;;;;;;;5.51;95.81;99398.44;5022757;28;19993;-84
2021/03/13 01:42:13;;;;;;;;;;;;;;;5.52;95.64;99402.75;5012695;28;19928;-80
2021/03/13 01:44:38;;;;;;;;;;;;;;;5.51;96.04;99393.09;5008273;28;20394;-88
2021/03/13 01:47:04;;;;;;;;;;;;;;;5.53;96.20;99385.78;5009251;28;19921;-80
2021/03/13 01:49:30;;;;;;;;;;;;;;;5.54;96.12;99373.31;4994285;28;19918;-84
2021/03/13 01:51:56;;;;;;;;;;;;;;;5.55;96.46;99377.63;5007894;28;19921;-86
2021/03/13 01:54:22;;;;;;;;;;;;;;;5.55;96.63;99373.16;5014318;28;19917;-85
2021/03/13 01:56:50;;;;;;;;;;;;;;;5.57;96.43;99363.16;5007803;28;19918;-85
2021/03/13 01:59:17;;;;;;;;;;;;;;;5.60;96.46;99356.69;5005709;28;19917;-86
2021/03/13 02:01:42;;;;;;;;;;;;;;;5.59;96.65;99333.75;4998726;28;19965;-81
2021/03/13 02:04:07;;;;;;;;;;;;;;;5.62;96.56;99336.88;5002037;28;19957;-81
2021/03/13 02:06:33;;;;;;;;;;;;;;;5.62;96.73;99336.06;5003677;28;19917;-81
2021/03/13 02:09:03;;;;;;;;;;;;;;;5.64;96.35;99334.91;5016347;28;19917;-82
2021/03/13 02:11:45;;;;;;;;;;;;;;;5.66;96.33;99322.22;5010021;28;19917;-89
2021/03/13 02:14:16;;;;;;;;;;;;;;;5.68;96.74;99321.25;5003756;28;19917;-83
2021/03/13 02:16:51;;;;;;;;;;;;;;;5.69;97.47;99320.25;5003708;28;19961;-81
2021/03/13 02:19:36;;;;;;;;;;;;;;;5.66;97.70;99306.25;5038995;28;20108;-86
2021/03/13 02:22:04;;;;;;;;;;;;;;;5.66;98.43;99306.25;5019940;28;19925;-84
2021/03/13 02:24:41;;;;;;;;;;;;;;;5.65;98.34;99301.13;5029005;28;19924;-84
2021/03/13 02:27:21;;;;;;;;;;;;;;;5.64;98.65;99297.63;5037898;28;19926;-85
2021/03/13 02:29:53;;;;;;;;;;;;;;;5.64;99.21;99291.50;5024171;28;20299;-81
2021/03/13 02:32:32;;;;;;;;;;;;;;;5.61;100.00;99290.00;5043287;28;19921;-85
2021/03/13 02:35:00;;;;;;;;;;;;;;;5.61;100.00;99289.13;5019569;28;19928;-82
2021/03/13 02:37:26;;;;;;;;;;;;;;;5.55;100.00;99272.03;5026602;28;19948;-82
2021/03/13 02:39:53;;;;;;;;;;;;;;;5.52;100.00;99269.69;5028874;28;21659;-87
2021/03/13 02:42:19;;;;;;;;;;;;;;;5.48;100.00;99265.72;5029829;28;19956;-83
2021/03/13 02:44:45;;;;;;;;;;;;;;;5.43;100.00;99247.59;5018959;28;19953;-84
2021/03/13 02:47:12;;;;;;;;;;;;;;;5.39;100.00;99251.59;5026494;28;19925;-85
2021/03/13 02:49:38;;;;;;;;;;;;;;;5.35;100.00;99244.13;5044172;28;19921;-81
2021/03/13 02:52:05;;;;;;;;;;;;;;;5.32;100.00;99220.50;5024810;28;20078;-81
2021/03/13 02:54:32;;;;;;;;;;;;;;;5.28;100.00;99233.31;5041675;28;20007;-86
2021/03/13 02:56:59;;;;;;;;;;;;;;;5.26;100.00;99222.00;5028276;28;19917;-87
2021/03/13 02:59:29;;;;;;;;;;;;;;;5.25;100.00;99216.88;5023766;28;19925;-83
2021/03/13 03:01:57;;;;;;;;;;;;;;;5.22;100.00;99209.25;5016988;28;19928;-85
2021/03/13 03:04:22;;;;;;;;;;;;;;;5.20;100.00;99204.06;5028468;28;19923;-86
2021/03/13 03:06:50;;;;;;;;;;;;;;;5.18;100.00;99188.31;5020248;28;20012;-83
2021/03/13 03:09:16;;;;;;;;;;;;;;;5.14;100.00;99197.59;5024951;28;19921;-86
2021/03/13 03:11:42;;;;;;;;;;;;;;;5.13;100.00;99177.34;5020562;28;19917;-83
2021/03/13 03:14:10;;;;;;;;;;;;;;;5.13;100.00;99150.75;5011748;28;19924;-85
2021/03/13 03:16:37;;;;;;;;;;;;;;;5.11;100.00;99158.06;5023905;28;19917;-88
2021/03/13 03:19:03;;;;;;;;;;;;;;;5.11;100.00;99157.22;5028585;28;19917;-81
2021/03/13 03:21:28;;;;;;;;;;;;;;;5.11;100.00;99150.06;5026401;28;19925;-84
2021/03/13 03:23:55;;;;;;;;;;;;;;;5.12;100.00;99133.13;5023973;28;19917;-83
2021/03/13 03:26:20;;;;;;;;;;;;;;;5.11;100.00;99131.47;5038246;28;19987;-86
2021/03/13 03:28:46;;;;;;;;;;;;;;;5.11;100.00;99136.78;5026256;28;20280;-85
2021/03/13 03:31:14;;;;;;;;;;;;;;;5.10;100.00;99108.53;5027728;28;19948;-84
2021/03/13 03:33:39;;;;;;;;;;;;;;;5.10;100.00;99108.53;5022030;28;20429;-82
2021/03/13 03:36:05;;;;;;;;;;;;;;;5.10;100.00;99103.22;5023280;28;20024;-81
2021/03/13 03:38:31;;;;;;;;;;;;;;;5.11;100.00;99102.22;5028960;28;19940;-83
2021/03/13 03:40:56;;;;;;;;;;;;;;;5.11;100.00;99090.75;5021538;28;20490;-85
2021/03/13 03:43:24;;;;;;;;;;;;;;;5.10;100.00;99091.75;5013591;28;19948;-81
2021/03/13 03:45:51;;;;;;;;;;;;;;;5.11;100.00;99080.13;5016096;28;19917;-81
2021/03/13 03:48:17;;;;;;;;;;;;;;;5.11;100.00;99067.66;5027019;28;19921;-82
2021/03/13 03:50:43;;;;;;;;;;;;;;;5.11;100.00;99059.66;5009373;28;19918;-84
2021/03/13 03:53:12;;;;;;;;;;;;;;;5.12;100.00;99039.22;5007404;28;19918;-85
2021/03/13 03:55:40;;;;;;;;;;;;;;;5.12;100.00;99042.72;5002300;28;19929;-82
2021/03/13 03:58:08;;;;;;;;;;;;;;;5.13;100.00;99025.75;5013092;28;19917;-81
2021/03/13 04:00:34;;;;;;;;;;;;;;;5.12;100.00;99021.47;5012831;28;19948;-84
2021/03/13 04:03:01;;;;;;;;;;;;;;;5.14;100.00;99019.44;5013171;28;19969;-82
2021/03/13 04:05:27;;;;;;;;;;;;;;;5.16;100.00;99011.31;5021638;28;19921;-86
2021/03/13 04:07:53;;;;;;;;;;;;;;;5.18;100.00;98990.69;5017661;28;19921;-86
2021/03/13 04:10:20;;;;;;;;;;;;;;;5.20;100.00;98992.16;5009330;28;19928;-87
2021/03/13 04:12:45;;;;;;;;;;;;;;;5.20;100.00;98986.81;5027617;28;19929;-79
2021/03/13 04:15:11;;;;;;;;;;;;;;;5.22;100.00;98975.22;5023007;28;19917;-82
2021/03/13 04:17:39;;;;;;;;;;;;;;;5.20;100.00;98976.19;5029914;28;19979;-84
2021/03/13 04:20:11;;;;;;;;;;;;;;;5.22;100.00;98968.06;5031012;28;19917;-82
2021/03/13 04:22:37;;;;;;;;;;;;;;;5.23;100.00;98952.91;5031214;28;19917;-84
2021/03/13 04:25:06;;;;;;;;;;;;;;;5.24;100.00;98938.66;5044550;28;19991;-87
2021/03/13 04:27:32;;;;;;;;;;;;;;;5.27;100.00;98927.66;5044975;28;19926;-86
2021/03/13 04:29:57;;;;;;;;;;;;;;;5.28;100.00;98918.66;5027654;28;19921;-86
2021/03/13 04:32:23;;;;;;;;;;;;;;;5.29;100.00;98920.31;5029851;28;20051;-80
2021/03/13 04:34:49;;;;;;;;;;;;;;;5.30;100.00;98932.63;5014344;28;19921;-86
2021/03/13 04:37:14;;;;;;;;;;;;;;;5.30;100.00;98908.69;5028004;28;19971;-85
2021/03/13 04:39:43;;;;;;;;;;;;;;;5.29;100.00;98899.03;5028176;28;19917;-84
2021/03/13 04:42:09;;;;;;;;;;;;;;;5.30;100.00;98890.06;5024578;28;19917;-86
2021/03/13 04:44:34;;;;;;;;;;;;;;;5.31;100.00;98884.56;5013440;28;19976;-83
2021/03/13 04:47:00;;;;;;;;;;;;;;;5.34;100.00;98872.72;5018250;28;19925;-83
2021/03/13 04:49:25;;;;;;;;;;;;;;;5.33;100.00;98874.56;5026028;28;19921;-82
2021/03/13 04:51:51;;;;;;;;;;;;;;;5.35;100.00;98871.72;5026697;28;19922;-83
2021/03/13 04:54:16;;;;;;;;;;;;;;;5.34;100.00;98846.97;5041997;28;19917;-80
2021/03/13 04:56:41;;;;;;;;;;;;;;;5.35;100.00;98859.28;5009495;28;19917;-84
2021/03/13 04:59:07;;;;;;;;;;;;;;;5.36;100.00;98846.78;5045020;28;19928;-82
2021/03/13 05:01:32;;;;;;;;;;;;;;;5.36;100.00;98825.50;5028503;28;19971;-82
2021/03/13 05:03:57;;;;;;;;;;;;;;;5.38;100.00;98828.81;5045709;28;20015;-87
2021/03/13 05:06:23;;;;;;;;;;;;;;;5.38;100.00;98820.81;5024914;28;19944;-85
2021/03/13 05:08:48;;;;;;;;;;;;;;;5.38;100.00;98812.84;5027297;28;19976;-84
2021/03/13 05:11:13;;;;;;;;;;;;;;;5.39;100.00;98810.00;5039367;28;19952;-83
2021/03/13 05:13:39;;;;;;;;;;;;;;;5.40;100.00;98797.53;5043086;28;20391;-87
2021/03/13 05:16:04;;;;;;;;;;;;;;;5.42;100.00;98793.69;5045920;28;20007;-86
2021/03/13 05:18:30;;;;;;;;;;;;;;;5.44;100.00;98780.22;5041531;28;19921;-81
2021/03/13 05:20:56;;;;;;;;;;;;;;;5.48;100.00;98770.03;5014832;28;19976;-85
2021/03/13 05:23:21;;;;;;;;;;;;;;;5.48;100.00;98754.91;5026763;28;20341;-80
2021/03/13 05:25:46;;;;;;;;;;;;;;;5.52;100.00;98756.19;5029062;28;20008;-85
2021/03/13 05:28:13;;;;;;;;;;;;;;;5.54;100.00;98746.19;5028710;28;19925;-83
2021/03/13 05:30:40;;;;;;;;;;;;;;;5.56;100.00;98725.56;5002880;28;19921;-80
2021/03/13 05:33:05;;;;;;;;;;;;;;;5.58;100.00;98751.97;5029491;28;20429;-84
2021/03/13 05:35:30;;;;;;;;;;;;;;;5.59;100.00;98730.53;5004011;28;19921;-88
2021/03/13 05:37:56;;;;;;;;;;;;;;;5.60;100.00;98716.19;4987733;28;20403;-85
2021/03/13 05:40:21;;;;;;;;;;;;;;;5.62;100.00;98700.88;5029535;28;19917;-82
2021/03/13 05:42:46;;;;;;;;;;;;;;;5.62;100.00;98724.00;5014183;28;20391;-81
2021/03/13 05:45:12;;;;;;;;;;;;;;;5.63;100.00;98699.84;5022747;28;20000;-83
2021/03/13 05:47:38;;;;;;;;;;;;;;;5.67;100.00;98711.00;5026395;28;19921;-85
2021/03/13 05:50:07;;;;;;;;;;;;;;;5.67;100.00;98684.38;4990980;28;19941;-83
2021/03/13 05:52:34;;;;;;;;;;;;;;;5.67;100.00;98681.72;5011047;28;19922;-84
2021/03/13 05:54:59;;;;;;;;;;;;;;;5.68;100.00;98656.75;5042620;28;19973;-86
2021/03/13 05:57:25;;;;;;;;;;;;;;;5.69;100.00;98653.06;5030201;28;19967;-84
2021/03/13 05:59:54;;;;;;;;;;;;;;;5.70;100.00;98635.25;5025582;28;20016;-88
2021/03/13 06:02:20;;;;;;;;;;;;;;;5.74;100.00;98628.56;5024869;28;19921;-81
2021/03/13 06:04:46;;;;;;;;;;;;;;;5.74;100.00;98637.38;5025778;28;19922;-88
2021/03/13 06:07:14;;;;;;;;;;;;;;;5.77;100.00;98620.22;5029534;28;20393;-83
2021/03/13 06:09:40;;;;;;;;;;;;;;;5.77;100.00;98610.38;5025958;28;19925;-86
2021/03/13 06:12:07;;;;;;;;;;;;;;;5.80;100.00;98599.38;5028080;28;20280;-83
2021/03/13 06:14:33;;;;;;;;;;;;;;;5.82;100.00;98615.16;5015206;28;19925;-87
2021/03/13 06:16:58;;;;;;;;;;;;;;;5.85;100.00;98596.16;5009912;28;19918;-80
2021/03/13 06:19:45;;;;;;;;;;;;;;;5.87;100.00;98607.44;5024105;28;19921;-83
2021/03/13 06:22:30;;;;;;;;;;;;;;;5.91;100.00;98584.75;5028891;28;20538;-87
2021/03/13 06:25:15;;;;;;;;;;;;;;;5.92;100.00;98602.34;5022059;28;19925;-84
2021/03/13 06:27:41;;;;;;;;;;;;;;;5.93;100.00;98580.09;5024954;28;19929;-88
2021/03/13 06:30:07;;;;;;;;;;;;;;;5.94;100.00;98573.75;5028159;28;20279;-86
2021/03/13 06:32:36;;;;;;;;;;;;;;;5.96;100.00;98587.72;5027554;28;19928;-81
2021/03/13 06:35:19;;;;;;;;;;;;;;;5.96;100.00;98581.56;5043830;28;19984;-83
2021/03/13 06:37:45;;;;;;;;;;;;;;;5.98;100.00;98576.84;5038595;28;19924;-86
2021/03/13 06:40:11;;;;;;;;;;;;;;;6.00;100.00;98559.69;5028613;28;19917;-87
2021/03/13 06:42:36;;;;;;;;;;;;;;;6.00;100.00;98559.69;5041361;28;20007;-85
2021/03/13 06:45:01;;;;;;;;;;;;;;;6.02;100.00;98555.00;5026515;28;19921;-82
2021/03/13 06:47:29;;;;;;;;;;;;;;;6.03;100.00;98537.19;5024149;28;19925;-86
2021/03/13 06:50:07;;;;;;;;;;;;;;;6.06;100.00;98512.84;5003725;28;19917;-83
2021/03/13 06:52:32;;;;;;;;;;;;;;;6.09;100.00;98552.41;5019543;28;19920;-89
2021/03/13 06:54:57;;;;;;;;;;;;;;;6.11;100.00;98537.06;5011333;28;20306;-79
2021/03/13 06:57:23;;;;;;;;;;;;;;;6.12;100.00;98553.84;5026608;28;19924;-83
2021/03/13 06:59:50;;;;;;;;;;;;;;;6.12;100.00;98565.34;5025484;28;19952;-84
2021/03/13 07:02:20;;;;;;;;;;;;;;;6.12;100.00;98561.84;5025526;28;19972;-86
2021/03/13 07:04:45;;;;;;;;;;;;;;;6.12;100.00;98580.50;5021770;28;19971;-84
2021/03/13 07:07:11;;;;;;;;;;;;;;;6.11;100.00;98606.28;4993630;28;19921;-85
2021/03/13 07:09:51;;;;;;;;;;;;;;;6.12;100.00;98665.69;5018629;28;19925;-82
2021/03/13 07:12:24;;;;;;;;;;;;;;;5.31;100.00;98665.63;5021486;28;19921;-81
2021/03/13 07:14:50;;;;;;;;;;;;;;;4.59;100.00;98668.78;5028668;28;19967;-87
2021/03/13 07:17:17;;;;;;;;;;;;;;;4.49;100.00;98650.44;5030110;28;19925;-83
2021/03/13 07:19:42;;;;;;;;;;;;;;;4.52;100.00;98613.72;5028265;28;20372;-83
2021/03/13 07:22:13;;;;;;;;;;;;;;;4.78;100.00;98603.72;5029213;28;19924;-84
2021/03/13 07:24:40;;;;;;;;;;;;;;;5.05;100.00;98619.03;5027127;28;19972;-84
2021/03/13 07:27:08;;;;;;;;;;;;;;;5.17;100.00;98603.47;5020367;28;19932;-84
2021/03/13 07:29:33;;;;;;;;;;;;;;;5.24;100.00;98624.84;5009404;28;19921;-82
2021/03/13 07:32:03;;;;;;;;;;;;;;;5.31;100.00;98639.03;5007286;28;20295;-83
2021/03/13 07:34:37;;;;;;;;;;;;;;;5.38;100.00;98595.59;5026915;28;19933;-82
2021/03/13 07:37:03;;;;;;;;;;;;;;;5.46;100.00;98609.78;5007740;28;19932;-83
2021/03/13 07:39:32;;;;;;;;;;;;;;;5.51;100.00;98626.03;5025594;28;19921;-90
2021/03/13 07:41:58;;;;;;;;;;;;;;;5.56;100.00;98632.44;5026736;28;19925;-86
2021/03/13 07:44:24;;;;;;;;;;;;;;;5.63;100.00;98653.81;5022638;28;19917;-84
2021/03/13 07:46:50;;;;;;;;;;;;;;;5.71;100.00;98653.72;5027025;28;19932;-83
2021/03/13 07:49:16;;;;;;;;;;;;;;;5.76;100.00;98627.38;5026116;28;19921;-84
2021/03/13 07:51:41;;;;;;;;;;;;;;;5.81;100.00;98640.97;5028406;28;20012;-82
2021/03/13 07:54:08;;;;;;;;;;;;;;;5.91;100.00;98647.81;5022597;28;20380;-82
2021/03/13 07:56:34;;;;;;;;;;;;;;;5.96;100.00;98651.59;5027972;28;19925;-85
2021/03/13 07:58:59;;;;;;;;;;;;;;;6.01;100.00;98641.22;5028678;28;19991;-86
2021/03/13 08:01:44;;;;;;;;;;;;;;;6.05;100.00;98650.47;5020676;28;19984;-85
2021/03/13 08:04:09;;;;;;;;;;;;;;;6.09;100.00;98661.56;5021205;28;19933;-86
2021/03/13 08:06:54;;;;;;;;;;;;;;;6.12;100.00;98644.41;5012936;28;19917;-88
2021/03/13 08:09:24;;;;;;;;;;;;;;;6.11;100.00;98664.88;5032815;28;19932;-84
2021/03/13 08:11:49;;;;;;;;;;;;;;;6.13;100.00;98648.69;5031112;28;20460;-85
2021/03/13 08:14:29;;;;;;;;;;;;;;;6.13;99.87;98654.03;5030651;28;20007;-83
2021/03/13 08:17:04;;;;;;;;;;;;;;;6.12;97.32;98669.19;5024113;28;19917;-82
2021/03/13 08:19:32;;;;;;;;;;;;;;;6.18;95.44;98676.41;5030439;28;19974;-82
2021/03/13 08:22:27;;;;;;;;;;;;;;;6.19;96.30;98624.81;5023359;28;19980;-84
2021/03/13 08:24:53;;;;;;;;;;;;;;;6.20;96.47;98689.56;5019459;28;19945;-83
2021/03/13 08:27:39;;;;;;;;;;;;;;;6.21;95.01;98683.22;5028147;28;20335;-83
2021/03/13 08:30:24;;;;;;;;;;;;;;;6.21;94.11;98683.22;5010154;28;19929;-85
2021/03/13 08:32:56;;;;;;;;;;;;;;;6.22;91.77;98690.22;5028150;28;19925;-87
2021/03/13 08:35:30;;;;;;;;;;;;;;;6.29;92.17;98688.44;5023382;28;19966;-88
2021/03/13 08:37:55;;;;;;;;;;;;;;;6.30;91.22;98674.94;5023369;28;19917;-86
2021/03/13 08:40:24;;;;;;;;;;;;;;;6.32;92.66;98653.44;5030035;28;19917;-83
2021/03/13 08:42:50;;;;;;;;;;;;;;;6.40;91.49;98653.31;5028337;28;19932;-86
2021/03/13 08:45:16;;;;;;;;;;;;;;;6.47;90.69;98645.38;5007498;28;20288;-83
2021/03/13 08:47:43;;;;;;;;;;;;;;;6.54;88.66;98648.94;5038643;28;19932;-85
2021/03/13 08:50:08;;;;;;;;;;;;;;;6.60;90.59;98658.84;5023170;28;20064;-85
2021/03/13 08:52:34;;;;;;;;;;;;;;;6.60;88.24;98653.50;5020139;28;19972;-86
2021/03/13 08:54:59;;;;;;;;;;;;;;;6.62;88.50;98661.28;5007627;28;20000;-85
2021/03/13 08:57:24;;;;;;;;;;;;;;;6.67;88.27;98658.88;5007847;28;19922;-83
2021/03/13 08:59:55;;;;;;;;;;;;;;;6.69;86.99;98655.03;5020285;28;20388;-83
2021/03/13 09:02:22;;;;;;;;;;;;;;;6.81;88.58;98654.50;5027875;28;19921;-86
2021/03/13 09:04:50;;;;;;;;;;;;;;;6.86;87.01;98636.91;5028493;28;19924;-88
2021/03/13 09:07:17;;;;;;;;;;;;;;;6.94;87.44;98663.44;5010365;28;19979;-84
2021/03/13 09:09:42;;;;;;;;;;;;;;;7.03;86.58;98620.66;5028936;28;19924;-86
2021/03/13 09:12:12;;;;;;;;;;;;;;;6.97;84.12;98641.72;5025588;28;19917;-85
2021/03/13 09:14:41;;;;;;;;;;;;;;;6.95;85.14;98638.41;5031145;28;19921;-86
2021/03/13 09:17:07;;;;;;;;;;;;;;;6.93;84.53;98664.47;5024018;28;20406;-87
2021/03/13 09:19:33;;;;;;;;;;;;;;;6.92;86.01;98664.66;5016319;28;19925;-84
2021/03/13 09:21:58;;;;;;;;;;;;;;;6.91;84.86;98652.34;5006576;28;19918;-81
2021/03/13 09:24:24;;;;;;;;;;;;;;;6.91;86.38;98653.16;5022590;28;19921;-81
2021/03/13 09:26:53;;;;;;;;;;;;;;;6.88;84.22;98647.41;5027444;28;19927;-81
2021/03/13 09:29:31;;;;;;;;;;;;;;;6.87;84.06;98653.72;5019327;28;20032;-84
2021/03/13 09:31:58;;;;;;;;;;;;;;;6.89;84.80;98643.72;5014742;28;19925;-82
2021/03/13 09:34:24;;;;;;;;;;;;;;;6.90;83.01;98654.16;5019619;28;19917;-85
2021/03/13 09:36:49;;;;;;;;;;;;;;;6.93;84.37;98655.63;4993119;28;19933;-82
2021/03/13 09:39:22;;;;;;;;;;;;;;;6.95;84.73;98645.59;5008439;28;20287;-83
2021/03/13 09:42:03;;;;;;;;;;;;;;;6.97;85.08;98639.06;5010877;28;19924;-82
2021/03/13 09:44:36;;;;;;;;;;;;;;;7.01;83.40;98663.50;5028561;28;19960;-87
2021/03/13 09:47:08;;;;;;;;;;;;;;;7.09;83.02;98659.88;5020532;28;19952;-85
2021/03/13 09:49:34;;;;;;;;;;;;;;;7.11;80.74;98672.00;5025777;28;19928;-86
2021/03/13 09:51:59;;;;;;;;;;;;;;;7.08;80.36;98667.06;5012742;28;19921;-87
2021/03/13 09:54:25;;;;;;;;;;;;;;;7.08;80.11;98659.06;5014701;28;20288;-87
2021/03/13 09:56:50;;;;;;;;;;;;;;;7.19;79.52;98679.00;5028130;28;19917;-86
2021/03/13 09:59:16;;;;;;;;;;;;;;;7.24;77.66;98628.56;5028717;28;19940;-85
2021/03/13 10:01:41;;;;;;;;;;;;;;;7.26;78.20;98647.88;5008106;28;20416;-82
2021/03/13 10:04:06;;;;;;;;;;;;;;;7.34;77.85;98661.06;5023411;28;19917;-85
2021/03/13 10:06:31;;;;;;;;;;;;;;;7.44;78.49;98668.72;4999419;28;19986;-82
2021/03/13 10:08:57;;;;;;;;;;;;;;;7.52;77.83;98628.53;5021899;28;19929;-87
2021/03/13 10:11:23;;;;;;;;;;;;;;;7.67;77.21;98634.56;5018329;28;19940;-84
2021/03/13 10:13:52;;;;;;;;;;;;;;;7.78;76.91;98640.38;5008166;28;20318;-85
2021/03/13 10:16:17;;;;;;;;;;;;;;;7.80;75.16;98646.34;5006987;28;19941;-84
2021/03/13 10:18:42;;;;;;;;;;;;;;;7.81;75.70;98619.44;5017837;28;20384;-83
2021/03/13 10:21:08;;;;;;;;;;;;;;;7.80;73.89;98612.44;5001167;28;20343;-82
2021/03/13 10:23:35;;;;;;;;;;;;;;;7.78;76.45;98619.00;5007161;28;20516;-88
2021/03/13 10:26:07;;;;;;;;;;;;;;;7.87;76.03;98615.97;5006938;28;19954;-83
2021/03/13 10:28:34;;;;;;;;;;;;;;;7.95;74.44;98620.31;4993375;28;19930;-85
2021/03/13 10:31:04;;;;;;;;;;;;;;;7.93;73.98;98617.00;5029726;28;19928;-84
2021/03/13 10:33:30;;;;;;;;;;;;;;;7.95;74.72;98638.19;5021404;28;20383;-85
2021/03/13 10:35:55;;;;;;;;;;;;;;;7.93;76.47;98633.03;5027853;28;19928;-83
2021/03/13 10:38:21;;;;;;;;;;;;;;;8.00;76.95;98638.38;5022957;28;19917;-84
2021/03/13 10:40:47;;;;;;;;;;;;;;;8.08;77.51;98641.72;5007201;28;19921;-86
2021/03/13 10:43:19;;;;;;;;;;;;;;;8.10;75.37;98633.50;5020551;28;19925;-82
2021/03/13 10:45:56;;;;;;;;;;;;;;;8.11;75.66;98619.13;5017427;28;20387;-83
2021/03/13 10:48:21;;;;;;;;;;;;;;;7.94;76.40;98617.81;5026039;28;19932;-86
2021/03/13 10:50:47;;;;;;;;;;;;;;;8.05;78.53;98641.28;5015849;28;19917;-87
2021/03/13 10:53:31;;;;;;;;;;;;;;;7.98;78.47;98621.75;4994934;28;20004;-87
2021/03/13 10:55:58;;;;;;;;;;;;;;;7.81;78.72;98610.59;5033499;28;19918;-83
2021/03/13 10:58:24;;;;;;;;;;;;;;;7.50;82.11;98603.06;5031352;28;20070;-82
2021/03/13 11:00:50;;;;;;;;;;;;;;;7.18;83.93;98613.34;5022020;28;20027;-83
2021/03/13 11:03:15;;;;;;;;;;;;;;;7.07;86.21;98628.03;4997368;28;19972;-83
2021/03/13 11:05:41;;;;;;;;;;;;;;;6.92;88.51;98664.66;5034029;28;19926;-85
2021/03/13 11:08:09;;;;;;;;;;;;;;;6.77;89.06;98595.44;5026274;28;19921;-84
2021/03/13 11:10:35;;;;;;;;;;;;;;;6.68;90.80;98649.91;5009388;28;19921;-87
2021/03/13 11:13:00;;;;;;;;;;;;;;;6.49;92.43;98662.81;5022684;28;19921;-88
2021/03/13 11:15:25;;;;;;;;;;;;;;;6.29;93.06;98619.19;5011798;28;20009;-84
2021/03/13 11:17:50;;;;;;;;;;;;;;;6.19;92.18;98658.63;4992755;28;19922;-85
2021/03/13 11:20:16;;;;;;;;;;;;;;;6.14;92.78;98621.06;5001430;28;19917;-84
2021/03/13 11:22:41;;;;;;;;;;;;;;;6.15;94.19;98644.03;4989957;28;20060;-82
2021/03/13 11:25:07;;;;;;;;;;;;;;;6.26;96.95;98655.00;5000717;28;20017;-87
2021/03/13 11:27:32;;;;;;;;;;;;;;;6.41;96.92;98660.28;5001800;28;20375;-85
2021/03/13 11:29:57;;;;;;;;;;;;;;;6.50;95.35;98683.16;5018866;28;19922;-84
2021/03/13 11:32:22;;;;;;;;;;;;;;;6.41;93.06;98659.47;5023272;28;19917;-86
2021/03/13 11:34:48;;;;;;;;;;;;;;;6.02;92.02;98663.34;5018098;28;19925;-85
2021/03/13 11:37:13;;;;;;;;;;;;;;;5.84;92.48;98645.06;4999726;28;20028;-85
2021/03/13 11:39:38;;;;;;;;;;;;;;;5.81;92.17;98646.28;5006552;28;20086;-85
2021/03/13 11:42:04;;;;;;;;;;;;;;;5.84;91.64;98647.72;5011349;28;19952;-87
2021/03/13 11:44:31;;;;;;;;;;;;;;;5.96;90.83;98630.31;5023227;28;19925;-83
2021/03/13 11:46:56;;;;;;;;;;;;;;;6.18;93.17;98633.00;5023960;28;19918;-84
2021/03/13 11:49:23;;;;;;;;;;;;;;;6.37;94.38;98621.72;5022366;28;19975;-85
2021/03/13 11:51:48;;;;;;;;;;;;;;;6.46;91.85;98620.56;5017956;28;19975;-85
2021/03/13 11:54:13;;;;;;;;;;;;;;;6.66;91.41;98611.94;5026255;28;20384;-85
2021/03/13 11:56:39;;;;;;;;;;;;;;;7.06;87.09;98591.72;5008147;28;19925;-86
2021/03/13 11:59:04;;;;;;;;;;;;;;;7.35;80.97;98580.00;5005261;28;20338;-83
2021/03/13 12:01:29;;;;;;;;;;;;;;;7.58;77.99;98608.25;4994472;28;19930;-82
2021/03/13 12:03:55;;;;;;;;;;;;;;;7.65;79.02;98598.41;5001815;28;19960;-86
2021/03/13 12:06:20;;;;;;;;;;;;;;;7.65;78.96;98599.25;4986260;28;19925;-85
2021/03/13 12:08:45;;;;;;;;;;;;;;;7.65;79.07;98606.41;5036157;28;20269;-83
2021/03/13 12:11:10;;;;;;;;;;;;;;;7.51;79.42;98620.72;5025485;28;20011;-83
2021/03/13 12:13:36;;;;;;;;;;;;;;;7.43;80.13;98616.38;5023136;28;19964;-87
2021/03/13 12:16:01;;;;;;;;;;;;;;;7.36;80.38;98634.19;5026038;28;20000;-84
2021/03/13 12:18:26;;;;;;;;;;;;;;;7.28;80.91;98637.84;5014069;28;20016;-82
2021/03/13 12:20:52;;;;;;;;;;;;;;;7.21;82.84;98669.78;5023657;28;20428;-83
2021/03/13 12:23:17;;;;;;;;;;;;;;;6.85;83.46;98669.09;5014678;28;19925;-87
2021/03/13 12:25:46;;;;;;;;;;;;;;;6.27;88.29;98658.47;5019755;28;19922;-83
2021/03/13 12:28:11;;;;;;;;;;;;;;;6.07;91.60;98628.97;4998156;28;20019;-85
2021/03/13 12:30:37;;;;;;;;;;;;;;;6.12;92.81;98679.03;5015403;28;20629;-86
2021/03/13 12:33:02;;;;;;;;;;;;;;;6.12;90.04;98652.38;5019676;28;19917;-88
2021/03/13 12:35:27;;;;;;;;;;;;;;;6.24;90.42;98669.53;5004347;28;19929;-87
2021/03/13 12:37:52;;;;;;;;;;;;;;;6.29;90.29;98643.16;5018926;28;20457;-83
2021/03/13 12:40:18;;;;;;;;;;;;;;;6.38;89.88;98660.66;5021317;28;19931;-85
2021/03/13 12:42:44;;;;;;;;;;;;;;;6.37;91.76;98647.53;5021839;28;19921;-82
2021/03/13 12:45:10;;;;;;;;;;;;;;;6.44;92.03;98649.25;5021731;28;19979;-87
2021/03/13 12:47:35;;;;;;;;;;;;;;;6.57;91.18;98648.56;5016917;28;19925;-87
2021/03/13 12:50:03;;;;;;;;;;;;;;;6.76;91.42;98644.41;5022023;28;19921;-88
2021/03/13 12:52:29;;;;;;;;;;;;;;;6.95;89.00;98619.75;5006542;28;19940;-84